createdAt,value
2018-05-24T00:01:03.663Z,97972.23
2018-05-24T00:03:31.907Z,97978.65
2018-05-24T00:06:00.164Z,97976.38
2018-05-24T00:08:29.178Z,97985.45
2018-05-24T00:10:58.207Z,97978.23
2018-05-24T00:13:26.471Z,97977.84
2018-05-24T00:15:55.503Z,97983.46
2018-05-24T00:18:23.742Z,97975.94
2018-05-24T00:20:52.035Z,97982.23
2018-05-24T00:23:20.274Z,97984.23
2018-05-24T00:25:48.538Z,97989.47
2018-05-24T00:28:16.778Z,97979.83
2018-05-24T00:30:45.053Z,97982.09
2018-05-24T00:33:13.316Z,97982.47
2018-05-24T00:35:42.340Z,97979.08
2018-05-24T00:38:10.579Z,97985.50
2018-05-24T00:40:38.805Z,97979.06
2018-05-24T00:43:07.088Z,97969.05
2018-05-24T00:45:35.367Z,97970.12
2018-05-24T00:48:04.392Z,97966.80
2018-05-24T00:50:32.646Z,97968.86
2018-05-24T00:53:01.645Z,97961.34
2018-05-24T00:55:41.872Z,97961.62
2018-05-24T00:58:10.107Z,97958.13
2018-05-24T01:00:38.381Z,97956.66
2018-05-24T01:03:06.614Z,97953.30
2018-05-24T01:05:34.836Z,97953.17
2018-05-24T01:08:03.065Z,97961.89
2018-05-24T01:10:31.363Z,97959.20
2018-05-24T01:13:00.374Z,97962.42
2018-05-24T01:15:29.364Z,97968.72
2018-05-24T01:17:57.621Z,97973.28
2018-05-24T01:20:26.637Z,97966.70
2018-05-24T01:22:55.714Z,97975.41
2018-05-24T01:25:23.954Z,97974.47
2018-05-24T01:27:52.981Z,97973.52
2018-05-24T01:30:21.973Z,97971.79
2018-05-24T01:32:50.990Z,97971.26
2018-05-24T01:35:19.232Z,97974.08
2018-05-24T01:37:50.470Z,97974.20
2018-05-24T01:40:18.697Z,97974.34
2018-05-24T01:42:46.954Z,97974.36
2018-05-24T01:45:15.199Z,97979.04
2018-05-24T01:47:44.210Z,97969.66
2018-05-24T01:50:12.454Z,97972.33
2018-05-24T01:52:40.713Z,97968.59
2018-05-24T01:55:08.955Z,97963.11
2018-05-24T01:57:37.982Z,97971.00
2018-05-24T02:00:06.240Z,97973.83
2018-05-24T02:02:34.511Z,97967.40
2018-05-24T02:05:02.727Z,97973.02
2018-05-24T02:07:31.025Z,97966.06
2018-05-24T02:10:00.034Z,97968.59
2018-05-24T02:12:29.065Z,97968.03
2018-05-24T02:14:57.320Z,97966.02
2018-05-24T02:17:26.360Z,97954.59
2018-05-24T02:19:54.591Z,97959.14
2018-05-24T02:22:22.851Z,97945.74
2018-05-24T02:24:51.062Z,97946.00
2018-05-24T02:27:20.073Z,97945.47
2018-05-24T02:29:49.095Z,97949.20
2018-05-24T02:32:17.346Z,97948.40
2018-05-24T02:34:45.596Z,97944.36
2018-05-24T02:37:13.857Z,97953.48
2018-05-24T02:39:42.920Z,97961.36
2018-05-24T02:42:11.182Z,97959.06
2018-05-24T02:44:40.209Z,97960.41
2018-05-24T02:47:08.450Z,97966.64
2018-05-24T02:49:36.732Z,97968.26
2018-05-24T02:52:05.775Z,97964.14
2018-05-24T02:54:34.036Z,97965.20
2018-05-24T02:57:02.243Z,97965.50
2018-05-24T02:59:30.534Z,97960.41
2018-05-24T03:02:00.299Z,97968.03
2018-05-24T03:04:28.525Z,97955.73
2018-05-24T03:06:56.815Z,97949.70
2018-05-24T03:09:25.088Z,97944.47
2018-05-24T03:11:53.282Z,97945.41
2018-05-24T03:14:21.668Z,97945.69
2018-05-24T03:16:49.823Z,97947.40
2018-05-24T03:19:18.087Z,97945.94
2018-05-24T03:21:46.330Z,97942.59
2018-05-24T03:24:15.739Z,97937.52
2018-05-24T03:26:43.978Z,97938.84
2018-05-24T03:29:12.214Z,97945.53
2018-05-24T03:31:40.484Z,97951.70
2018-05-24T03:34:08.765Z,97951.44
2018-05-24T03:36:37.003Z,97951.41
2018-05-24T03:39:05.296Z,97950.64
2018-05-24T03:41:33.551Z,97961.21
2018-05-24T03:44:01.803Z,97961.46
2018-05-24T03:46:31.910Z,97960.41
2018-05-24T03:49:00.183Z,97960.53
2018-05-24T03:51:28.394Z,97964.92
2018-05-24T03:53:56.671Z,97959.30
2018-05-24T03:56:25.716Z,97969.37
2018-05-24T03:59:09.146Z,97962.27
2018-05-24T04:01:55.816Z,97969.77
2018-05-24T04:04:41.734Z,97970.45
2018-05-24T04:07:09.945Z,97971.77
2018-05-24T04:09:38.263Z,97973.08
2018-05-24T04:12:06.510Z,97977.09
2018-05-24T04:14:34.763Z,97974.92
2018-05-24T04:17:03.011Z,97971.87
2018-05-24T04:19:32.029Z,97967.33
2018-05-24T04:22:00.275Z,97969.72
2018-05-24T04:24:28.554Z,97984.03
2018-05-24T04:26:56.870Z,97989.38
2018-05-24T04:29:25.070Z,97997.94
2018-05-24T04:31:54.095Z,98001.02
2018-05-24T04:34:22.340Z,98002.11
2018-05-24T04:36:50.600Z,98018.57
2018-05-24T04:39:18.891Z,98016.17
2018-05-24T04:41:47.113Z,98007.23
2018-05-24T04:44:15.387Z,98007.36
2018-05-24T04:46:43.652Z,98011.37
2018-05-24T04:49:11.946Z,98014.18
2018-05-24T04:51:40.203Z,98012.28
2018-05-24T04:54:08.452Z,98020.06
2018-05-24T04:56:36.727Z,98021.15
2018-05-24T04:59:04.951Z,98023.05
2018-05-24T05:01:34.014Z,98023.32
2018-05-24T05:04:02.984Z,98028.70
2018-05-24T05:06:31.248Z,98024.96
2018-05-24T05:09:00.258Z,98029.13
2018-05-24T05:11:29.646Z,98028.22
2018-05-24T05:13:57.858Z,98034.47
2018-05-24T05:16:26.157Z,98030.34
2018-05-24T05:18:55.519Z,98028.73
2018-05-24T05:21:27.565Z,98026.36
2018-05-24T05:23:55.803Z,98036.41
2018-05-24T05:26:24.054Z,98030.25
2018-05-24T05:28:52.305Z,98028.66
2018-05-24T05:31:21.330Z,98028.38
2018-05-24T05:33:49.570Z,98025.94
2018-05-24T05:36:17.790Z,98025.42
2018-05-24T05:38:46.065Z,98034.83
2018-05-24T05:41:14.316Z,98027.00
2018-05-24T05:43:42.583Z,98032.13
2018-05-24T05:46:11.593Z,98029.30
2018-05-24T05:48:39.878Z,98030.75
2018-05-24T05:51:08.124Z,98027.13
2018-05-24T05:53:36.387Z,98028.54
2018-05-24T05:56:04.631Z,98025.13
2018-05-24T05:58:33.661Z,98027.11
2018-05-24T06:01:02.263Z,98024.68
2018-05-24T06:03:30.523Z,98023.34
2018-05-24T06:05:59.534Z,98022.36
2018-05-24T06:08:27.800Z,98027.73
2018-05-24T06:10:56.783Z,98033.27
2018-05-24T06:13:25.850Z,98036.50
2018-05-24T06:15:54.086Z,98035.21
2018-05-24T06:18:22.347Z,98026.69
2018-05-24T06:20:50.585Z,98022.48
2018-05-24T06:23:18.875Z,98031.66
2018-05-24T06:25:47.883Z,98041.64
2018-05-24T06:28:16.908Z,98046.58
2018-05-24T06:30:45.155Z,98045.25
2018-05-24T06:33:13.405Z,98047.84
2018-05-24T06:35:41.656Z,98047.05
2018-05-24T06:38:09.906Z,98045.31
2018-05-24T06:40:38.261Z,98049.22
2018-05-24T06:43:06.422Z,98051.17
2018-05-24T06:45:35.391Z,98056.56
2018-05-24T06:48:04.453Z,98055.66
2018-05-24T06:50:33.514Z,98060.44
2018-05-24T06:53:01.734Z,98059.81
2018-05-24T06:55:30.026Z,98064.06
2018-05-24T06:57:59.060Z,98062.47
2018-05-24T07:00:27.310Z,98055.77
2018-05-24T07:02:56.348Z,98050.41
2018-05-24T07:05:24.588Z,98048.67
2018-05-24T07:07:52.866Z,98040.55
2018-05-24T07:10:21.878Z,98055.08
2018-05-24T07:12:50.140Z,98057.05
2018-05-24T07:15:18.401Z,98057.71
2018-05-24T07:17:47.417Z,98052.81
2018-05-24T07:20:15.674Z,98058.72
2018-05-24T07:22:44.711Z,98056.02
2018-05-24T07:25:12.962Z,98056.92
2018-05-24T07:27:41.283Z,98061.03
2018-05-24T07:30:09.503Z,98058.56
2018-05-24T07:32:37.738Z,98060.20
2018-05-24T07:35:06.032Z,98069.31
2018-05-24T07:37:35.060Z,98069.99
2018-05-24T07:40:03.401Z,98062.04
2018-05-24T07:42:31.629Z,98058.51
2018-05-24T07:44:59.860Z,98061.84
2018-05-24T07:47:28.123Z,98058.16
2018-05-24T07:49:56.495Z,98054.30
2018-05-24T07:52:24.751Z,98055.22
2018-05-24T07:54:53.087Z,98054.30
2018-05-24T07:57:21.276Z,98045.57
2018-05-24T07:59:49.535Z,98047.39
2018-05-24T08:02:18.507Z,98042.78
2018-05-24T08:04:47.563Z,98041.59
2018-05-24T08:07:15.807Z,98044.38
2018-05-24T08:09:44.027Z,98041.00
2018-05-24T08:12:12.319Z,98040.33
2018-05-24T08:14:41.416Z,98039.65
2018-05-24T08:17:09.597Z,98038.95
2018-05-24T08:19:37.861Z,98037.73
2018-05-24T08:22:06.215Z,98031.23
2018-05-24T08:24:34.479Z,98038.11
2018-05-24T08:27:03.497Z,98027.19
2018-05-24T08:29:32.523Z,98035.36
2018-05-24T08:32:00.804Z,98031.87
2018-05-24T08:34:29.067Z,98026.91
2018-05-24T08:36:58.195Z,98031.81
2018-05-24T08:39:27.234Z,98036.56
2018-05-24T08:41:55.528Z,98030.55
2018-05-24T08:44:23.792Z,98030.73
2018-05-24T08:46:52.013Z,98034.92
2018-05-24T08:49:21.079Z,98035.21
2018-05-24T08:51:50.097Z,98035.73
2018-05-24T08:54:18.338Z,98027.34
2018-05-24T08:56:46.581Z,98029.02
2018-05-24T08:59:14.841Z,98033.61
2018-05-24T09:01:43.857Z,98029.39
2018-05-24T09:04:12.095Z,98026.83
2018-05-24T09:06:40.338Z,98033.66
2018-05-24T09:09:09.385Z,98024.66
2018-05-24T09:11:37.622Z,98022.39
2018-05-24T09:14:07.522Z,98017.68
2018-05-24T09:16:35.775Z,98020.28
2018-05-24T09:19:03.992Z,98020.63
2018-05-24T09:21:33.056Z,98019.45
2018-05-24T09:24:01.324Z,98017.64
2018-05-24T09:26:30.369Z,98017.98
2018-05-24T09:28:58.614Z,98014.20
2018-05-24T09:31:27.656Z,98018.67
2018-05-24T09:33:55.896Z,98016.08
2018-05-24T09:36:25.050Z,98012.32
2018-05-24T09:38:53.191Z,98010.53
2018-05-24T09:41:23.111Z,98017.41
2018-05-24T09:43:51.363Z,97997.71
2018-05-24T09:46:19.635Z,98005.11
2018-05-24T09:48:47.884Z,98004.64
2018-05-24T09:51:16.143Z,97999.13
2018-05-24T09:53:44.386Z,97997.78
2018-05-24T09:56:12.686Z,97998.90
2018-05-24T09:58:40.911Z,97999.16
2018-05-24T10:01:09.148Z,98005.20
2018-05-24T10:03:37.383Z,97998.25
2018-05-24T10:06:05.680Z,97995.74
2018-05-24T10:08:33.886Z,97992.63
2018-05-24T10:11:02.946Z,97997.27
2018-05-24T10:13:31.188Z,97993.74
2018-05-24T10:15:59.435Z,97987.12
2018-05-24T10:18:27.724Z,97996.92
2018-05-24T10:20:55.967Z,97998.73
2018-05-24T10:23:25.063Z,97999.39
2018-05-24T10:25:53.263Z,97992.59
2018-05-24T10:28:22.329Z,98001.45
2018-05-24T10:30:50.677Z,97996.63
2018-05-24T10:33:18.896Z,97991.83
2018-05-24T10:35:47.167Z,97995.12
2018-05-24T10:38:15.424Z,97987.16
2018-05-24T10:40:44.427Z,97985.31
2018-05-24T10:43:13.459Z,97978.12
2018-05-24T10:45:41.679Z,97977.31
2018-05-24T10:48:09.941Z,97968.13
2018-05-24T10:50:38.190Z,97952.93
2018-05-24T10:53:06.447Z,97952.40
2018-05-24T10:55:34.691Z,97938.28
2018-05-24T10:58:03.680Z,97944.54
2018-05-24T11:00:31.954Z,97936.89
2018-05-24T11:03:00.642Z,97935.99
2018-05-24T11:05:29.591Z,97938.20
2018-05-24T11:07:58.615Z,97928.56
2018-05-24T11:10:26.863Z,97925.45
2018-05-24T11:12:55.148Z,97921.08
2018-05-24T11:15:23.399Z,97925.02
2018-05-24T11:17:51.664Z,97924.99
2018-05-24T11:20:19.903Z,97930.97
2018-05-24T11:22:48.159Z,97927.37
2018-05-24T11:25:16.427Z,97927.81
2018-05-24T11:27:44.658Z,97921.61
2018-05-24T11:30:12.869Z,97925.34
2018-05-24T11:32:41.147Z,97930.00
2018-05-24T11:35:09.395Z,97927.58
2018-05-24T11:37:37.631Z,97920.19
2018-05-24T11:40:05.895Z,97925.30
2018-05-24T11:42:34.138Z,97922.06
2018-05-24T11:45:03.159Z,97930.34
2018-05-24T11:47:31.389Z,97934.40
2018-05-24T11:49:59.638Z,97932.56
2018-05-24T11:52:27.887Z,97929.88
2018-05-24T11:54:56.146Z,97939.48
2018-05-24T11:57:24.352Z,97938.33
2018-05-24T11:59:52.652Z,97949.46
2018-05-24T12:02:20.904Z,97957.13
2018-05-24T12:04:49.187Z,97958.55
2018-05-24T12:07:17.435Z,97968.73
2018-05-24T12:09:47.227Z,97962.23
2018-05-24T12:12:15.442Z,97960.73
2018-05-24T12:14:44.471Z,97954.86
2018-05-24T12:17:12.711Z,97946.55
2018-05-24T12:19:40.984Z,97941.31
2018-05-24T12:22:09.219Z,97938.17
2018-05-24T12:24:38.251Z,97936.74
2018-05-24T12:27:06.496Z,97935.53
2018-05-24T12:29:34.755Z,97936.25
2018-05-24T12:32:02.986Z,97929.19
2018-05-24T12:34:32.019Z,97923.52
2018-05-24T12:37:00.264Z,97916.92
2018-05-24T12:39:28.484Z,97922.19
2018-05-24T12:41:56.877Z,97921.63
2018-05-24T12:44:25.040Z,97938.64
2018-05-24T12:46:53.294Z,97938.20
2018-05-24T12:49:21.563Z,97944.32
2018-05-24T12:51:49.878Z,97929.34
2018-05-24T12:54:18.039Z,97918.02
2018-05-24T12:56:46.304Z,97910.08
2018-05-24T12:59:15.304Z,97911.95
2018-05-24T13:01:44.322Z,97906.69
2018-05-24T13:04:12.603Z,97898.58
2018-05-24T13:06:40.848Z,97892.61
2018-05-24T13:09:09.088Z,97885.70
2018-05-24T13:11:37.343Z,97889.44
2018-05-24T13:14:05.598Z,97891.20
2018-05-24T13:16:33.875Z,97897.23
2018-05-24T13:19:02.163Z,97895.89
2018-05-24T13:21:30.443Z,97901.31
2018-05-24T13:23:58.717Z,97905.98
2018-05-24T13:26:27.738Z,97902.22
2018-05-24T13:28:56.015Z,97903.53
2018-05-24T13:31:25.008Z,97903.95
2018-05-24T13:33:53.273Z,97910.61
2018-05-24T13:36:22.348Z,97922.82
2018-05-24T13:38:50.584Z,97921.14
2018-05-24T13:41:18.899Z,97909.53
2018-05-24T13:43:47.166Z,97908.30
2018-05-24T13:46:16.207Z,97905.58
2018-05-24T13:48:44.429Z,97900.59
2018-05-24T13:51:12.740Z,97897.23
2018-05-24T13:53:40.941Z,97895.41
2018-05-24T13:56:09.243Z,97898.02
2018-05-24T13:58:38.295Z,97890.63
2018-05-24T14:01:06.543Z,97891.86
2018-05-24T14:03:35.564Z,97889.01
2018-05-24T14:06:03.827Z,97892.50
2018-05-24T14:08:32.856Z,97889.92
2018-05-24T14:11:01.129Z,97886.17
2018-05-24T14:13:30.150Z,97888.11
2018-05-24T14:15:58.440Z,97890.92
2018-05-24T14:18:26.717Z,97887.65
2018-05-24T14:20:55.782Z,97871.58
2018-05-24T14:23:24.089Z,97857.24
2018-05-24T14:25:52.346Z,97856.36
2018-05-24T14:28:20.690Z,97860.34
2018-05-24T14:30:49.707Z,97864.27
2018-05-24T14:33:17.975Z,97865.94
2018-05-24T14:35:47.024Z,97867.86
2018-05-24T14:38:15.295Z,97872.63
2018-05-24T14:40:44.267Z,97868.50
2018-05-24T14:43:12.561Z,97867.00
2018-05-24T14:45:40.899Z,97864.92
2018-05-24T14:48:09.171Z,97866.34
2018-05-24T14:50:38.154Z,97866.30
2018-05-24T14:53:06.413Z,97870.23
2018-05-24T14:55:35.501Z,97870.50
2018-05-24T14:58:03.739Z,97872.64
2018-05-24T15:00:31.979Z,97878.45
2018-05-24T15:03:00.282Z,97881.98
2018-05-24T15:05:28.579Z,97891.89
2018-05-24T15:07:56.859Z,97890.79
2018-05-24T15:10:25.126Z,97894.03
2018-05-24T15:12:53.391Z,97890.04
2018-05-24T15:15:21.632Z,97899.64
2018-05-24T15:17:50.692Z,97897.06
2018-05-24T15:20:18.936Z,97893.75
2018-05-24T15:22:47.213Z,97885.62
2018-05-24T15:25:15.461Z,97885.52
2018-05-24T15:27:43.731Z,97894.70
2018-05-24T15:30:12.757Z,97894.72
2018-05-24T15:32:41.016Z,97900.90
2018-05-24T15:35:10.023Z,97901.88
2018-05-24T15:37:39.046Z,97906.88
2018-05-24T15:40:08.080Z,97899.46
2018-05-24T15:42:36.294Z,97901.61
2018-05-24T15:45:05.345Z,97904.64
2018-05-24T15:47:34.380Z,97905.70
2018-05-24T15:50:02.635Z,97898.00
2018-05-24T15:52:32.027Z,97905.24
2018-05-24T15:55:01.050Z,97891.24
2018-05-24T15:57:30.117Z,97895.41
2018-05-24T15:59:58.400Z,97889.78
2018-05-24T16:02:26.618Z,97890.19
2018-05-24T16:04:55.674Z,97883.35
2018-05-24T16:07:23.928Z,97877.38
2018-05-24T16:09:52.194Z,97873.17
2018-05-24T16:12:20.501Z,97879.63
2018-05-24T16:14:48.751Z,97878.57
2018-05-24T16:17:17.017Z,97877.62
2018-05-24T16:19:45.282Z,97876.94
2018-05-24T16:22:14.341Z,97877.95
2018-05-24T16:24:43.145Z,97881.74
2018-05-24T16:27:11.380Z,97876.08
2018-05-24T16:29:40.435Z,97876.34
2018-05-24T16:32:08.679Z,97882.64
2018-05-24T16:34:37.730Z,97880.45
2018-05-24T16:37:05.987Z,97875.75
2018-05-24T16:39:34.288Z,97881.16
2018-05-24T16:42:03.299Z,97882.06
2018-05-24T16:44:32.704Z,97874.86
2018-05-24T16:47:00.957Z,97872.36
2018-05-24T16:49:29.259Z,97874.34
2018-05-24T16:51:57.515Z,97869.13
2018-05-24T16:54:25.954Z,97872.47
2018-05-24T16:56:54.892Z,97868.73
2018-05-24T16:59:23.155Z,97863.31
2018-05-24T17:01:51.474Z,97863.88
2018-05-24T17:04:20.496Z,97870.59
2018-05-24T17:06:48.743Z,97879.67
2018-05-24T17:09:17.038Z,97888.30
2018-05-24T17:11:45.301Z,97889.21
2018-05-24T17:14:14.337Z,97883.07
2018-05-24T17:16:42.604Z,97889.71
2018-05-24T17:19:11.566Z,97880.11
2018-05-24T17:21:40.639Z,97880.69
2018-05-24T17:24:08.852Z,97877.62
2018-05-24T17:26:37.201Z,97877.41
2018-05-24T17:29:06.192Z,97880.00
2018-05-24T17:31:34.525Z,97879.74
2018-05-24T17:34:02.775Z,97881.86
2018-05-24T17:36:31.057Z,97885.38
2018-05-24T17:38:59.303Z,97884.46
2018-05-24T17:41:27.566Z,97884.56
2018-05-24T17:43:56.580Z,97873.94
2018-05-24T17:46:24.859Z,97875.74
2018-05-24T17:48:53.887Z,97872.52
2018-05-24T17:51:22.146Z,97872.38
2018-05-24T17:53:51.165Z,97876.92
2018-05-24T17:56:19.442Z,97871.45
2018-05-24T17:58:47.683Z,97871.62
2018-05-24T18:01:15.959Z,97875.14
2018-05-24T18:03:44.181Z,97878.45
2018-05-24T18:06:12.484Z,97876.08
2018-05-24T18:08:41.515Z,97874.30
2018-05-24T18:11:09.791Z,97875.86
2018-05-24T18:13:39.571Z,97876.02
2018-05-24T18:16:07.846Z,97885.20
2018-05-24T18:18:36.078Z,97887.18
2018-05-24T18:21:05.124Z,97886.41
2018-05-24T18:23:34.481Z,97894.75
2018-05-24T18:26:02.735Z,97901.55
2018-05-24T18:28:30.968Z,97898.19
2018-05-24T18:30:59.236Z,97897.79
2018-05-24T18:33:27.484Z,97894.69
2018-05-24T18:35:55.807Z,97894.15
2018-05-24T18:38:24.059Z,97894.77
2018-05-24T18:40:52.343Z,97895.86
2018-05-24T18:43:21.354Z,97893.95
2018-05-24T18:45:49.605Z,97886.36
2018-05-24T18:48:17.859Z,97893.91
2018-05-24T18:50:46.104Z,97900.50
2018-05-24T18:53:15.105Z,97909.06
2018-05-24T18:55:44.098Z,97918.34
2018-05-24T18:58:12.359Z,97917.80
2018-05-24T19:00:40.601Z,97911.51
2018-05-24T19:03:09.629Z,97911.45
2018-05-24T19:05:37.872Z,97916.52
2018-05-24T19:08:06.130Z,97912.87
2018-05-24T19:10:34.368Z,97917.47
2018-05-24T19:13:03.384Z,97916.80
2018-05-24T19:15:31.655Z,97917.98
2018-05-24T19:18:00.712Z,97921.82
2018-05-24T19:20:28.964Z,97925.27
2018-05-24T19:22:57.271Z,97926.97
2018-05-24T19:25:25.534Z,97927.55
2018-05-24T19:27:54.558Z,97933.59
2018-05-24T19:30:23.931Z,97938.00
2018-05-24T19:32:52.212Z,97934.87
2018-05-24T19:35:20.475Z,97940.44
2018-05-24T19:37:48.747Z,97947.77
2018-05-24T19:40:17.015Z,97947.27
2018-05-24T19:42:46.035Z,97948.88
2018-05-24T19:45:14.282Z,97947.36
2018-05-24T19:47:42.536Z,97948.20
2018-05-24T19:50:10.776Z,97954.69
2018-05-24T19:52:39.807Z,97958.91
2018-05-24T19:55:08.053Z,97957.33
2018-05-24T19:57:36.643Z,97966.92
2018-05-24T20:00:04.884Z,97968.16
2018-05-24T20:02:33.134Z,97971.41
2018-05-24T20:05:01.393Z,97975.16
2018-05-24T20:07:29.727Z,97976.13
2018-05-24T20:09:58.740Z,97989.33
2018-05-24T20:12:28.484Z,97987.59
2018-05-24T20:14:56.740Z,97993.91
2018-05-24T20:17:25.752Z,97996.45
2018-05-24T20:19:54.771Z,97997.72
2018-05-24T20:22:23.787Z,98001.77
2018-05-24T20:24:52.052Z,98009.82
2018-05-24T20:27:21.059Z,97997.21
2018-05-24T20:29:50.082Z,98000.55
2018-05-24T20:32:18.332Z,98004.15
2018-05-24T20:34:46.575Z,98005.75
2018-05-24T20:37:14.804Z,98011.58
2018-05-24T20:39:43.036Z,98003.16
2018-05-24T20:42:11.256Z,98009.08
2018-05-24T20:44:39.578Z,98001.59
2018-05-24T20:47:07.784Z,97999.33
2018-05-24T20:49:36.794Z,97994.91
2018-05-24T20:52:05.797Z,97995.31
2018-05-24T20:54:34.828Z,98000.95
2018-05-24T20:57:03.495Z,98000.56
2018-05-24T20:59:31.743Z,98001.67
2018-05-24T21:01:59.978Z,97989.86
2018-05-24T21:04:29.595Z,97990.80
2018-05-24T21:06:58.644Z,97985.58
2018-05-24T21:09:26.872Z,97989.22
2018-05-24T21:11:55.150Z,97984.93
2018-05-24T21:14:23.394Z,97989.45
2018-05-24T21:16:51.672Z,97989.20
2018-05-24T21:19:20.689Z,97992.84
2018-05-24T21:21:48.929Z,97984.00
2018-05-24T21:24:17.136Z,97990.56
2018-05-24T21:26:45.405Z,97988.56
2018-05-24T21:29:13.654Z,97985.62
2018-05-24T21:31:41.893Z,97989.91
2018-05-24T21:34:10.143Z,97982.94
2018-05-24T21:36:38.378Z,97983.47
2018-05-24T21:39:06.597Z,97980.00
2018-05-24T21:41:34.814Z,97982.94
2018-05-24T21:44:03.048Z,97977.16
2018-05-24T21:46:31.343Z,97980.41
2018-05-24T21:49:00.347Z,97984.69
2018-05-24T21:51:29.372Z,97987.37
2018-05-24T21:53:57.613Z,97985.89
2018-05-24T21:56:25.861Z,97981.31
2018-05-24T21:58:54.090Z,97980.11
2018-05-24T22:01:22.357Z,97982.78
2018-05-24T22:03:50.551Z,97986.53
2018-05-24T22:06:19.627Z,97990.83
2018-05-24T22:08:47.867Z,97992.31
2018-05-24T22:11:16.121Z,97993.81
2018-05-24T22:13:44.359Z,98001.31
2018-05-24T22:16:13.376Z,98000.09
2018-05-24T22:18:42.379Z,98003.56
2018-05-24T22:21:11.393Z,97987.88
2018-05-24T22:23:41.139Z,97998.33
2018-05-24T22:26:09.387Z,98007.72
2018-05-24T22:28:37.615Z,97998.34
2018-05-24T22:31:05.865Z,97999.81
2018-05-24T22:33:34.119Z,97998.74
2018-05-24T22:36:02.386Z,97988.37
2018-05-24T22:38:30.626Z,97985.57
2018-05-24T22:40:58.876Z,97994.46
2018-05-24T22:43:27.094Z,97988.92
2018-05-24T22:45:56.177Z,97991.23
2018-05-24T22:48:24.408Z,97991.23
2018-05-24T22:50:52.683Z,97987.52
2018-05-24T22:53:20.921Z,97995.83
2018-05-24T22:55:49.201Z,97990.84
2018-05-24T22:58:18.200Z,97988.32
2018-05-24T23:00:47.219Z,97988.30
2018-05-24T23:03:15.498Z,97987.23
2018-05-24T23:05:43.718Z,97994.86
2018-05-24T23:08:11.953Z,97998.09
2018-05-24T23:10:40.215Z,97998.23
2018-05-24T23:13:08.425Z,97989.23
2018-05-24T23:15:36.698Z,97987.75
2018-05-24T23:18:04.947Z,97988.70
2018-05-24T23:20:33.186Z,97987.63
2018-05-24T23:23:01.443Z,97996.06
2018-05-24T23:25:29.679Z,97991.91
2018-05-24T23:27:58.698Z,97990.66
2018-05-24T23:30:26.922Z,98003.11
2018-05-24T23:32:55.223Z,97997.75
2018-05-24T23:35:23.447Z,97993.59
2018-05-24T23:37:52.490Z,97989.80
2018-05-24T23:40:21.479Z,97996.23
2018-05-24T23:42:49.740Z,97999.36
2018-05-24T23:45:17.978Z,97996.41
2018-05-24T23:47:46.264Z,98003.10
2018-05-24T23:50:14.483Z,98001.23
2018-05-24T23:52:42.743Z,98002.98
2018-05-24T23:55:10.995Z,98002.65
2018-05-24T23:57:40.067Z,98000.36
